createdAt,value
2022-10-14T00:01:22.951Z,95456.88
2022-10-14T00:03:51.993Z,95442.84
2022-10-14T00:06:23.065Z,95444.44
2022-10-14T00:08:51.670Z,95441.56
2022-10-14T00:11:21.567Z,95435.50
2022-10-14T00:13:50.225Z,95437.09
2022-10-14T00:16:22.338Z,95434.47
2022-10-14T00:18:50.543Z,95428.66
2022-10-14T00:21:18.984Z,95437.59
2022-10-14T00:23:47.835Z,95434.41
2022-10-14T00:26:18.492Z,95432.34
2022-10-14T00:28:47.251Z,95442.84
2022-10-14T00:31:16.107Z,95434.91
2022-10-14T00:33:47.808Z,95439.84
2022-10-14T00:36:18.859Z,95434.81
2022-10-14T00:38:47.214Z,95443.69
2022-10-14T00:41:18.860Z,95445.16
2022-10-14T00:43:57.653Z,95450.56
2022-10-14T00:46:27.092Z,95450.88
2022-10-14T00:49:05.120Z,95449.44
2022-10-14T00:51:33.350Z,95443.13
2022-10-14T00:54:01.531Z,95441.00
2022-10-14T00:56:31.534Z,95438.97
2022-10-14T00:59:01.047Z,95434.28
2022-10-14T01:01:29.392Z,95439.41
2022-10-14T01:03:57.320Z,95439.34
2022-10-14T01:06:40.795Z,95436.84
2022-10-14T01:09:19.878Z,95437.69
2022-10-14T01:12:23.369Z,95428.06
2022-10-14T01:14:54.836Z,95435.38
2022-10-14T01:17:36.243Z,95436.59
2022-10-14T01:20:30.161Z,95432.38
2022-10-14T01:23:17.931Z,95420.56
2022-10-14T01:25:56.408Z,95421.66
2022-10-14T01:28:33.044Z,95423.59
2022-10-14T01:31:05.869Z,95424.38
2022-10-14T01:33:38.162Z,95420.06
2022-10-14T01:36:11.608Z,95410.09
2022-10-14T01:38:42.697Z,95409.25
2022-10-14T01:41:15.824Z,95404.47
2022-10-14T01:43:47.833Z,95416.78
2022-10-14T01:46:20.893Z,95412.63
2022-10-14T01:48:53.857Z,95421.53
2022-10-14T01:51:25.563Z,95412.63
2022-10-14T01:53:58.658Z,95402.69
2022-10-14T01:56:29.075Z,95399.03
2022-10-14T01:59:00.544Z,95407.97
2022-10-14T02:01:30.034Z,95399.03
2022-10-14T02:03:58.117Z,95398.28
2022-10-14T02:06:34.931Z,95401.34
2022-10-14T02:09:13.237Z,95398.94
2022-10-14T02:12:02.268Z,95400.78
2022-10-14T02:14:39.674Z,95391.31
2022-10-14T02:17:13.595Z,95388.25
2022-10-14T02:19:48.488Z,95393.09
2022-10-14T02:22:26.431Z,95388.88
2022-10-14T02:24:59.306Z,95392.06
2022-10-14T02:27:29.728Z,95391.09
2022-10-14T02:30:01.005Z,95400.50
2022-10-14T02:32:31.943Z,95404.13
2022-10-14T02:35:03.102Z,95399.75
2022-10-14T02:37:32.420Z,95403.34
2022-10-14T02:40:06.311Z,95400.47
2022-10-14T02:42:34.444Z,95389.03
2022-10-14T02:45:06.078Z,95396.78
2022-10-14T02:47:35.432Z,95390.47
2022-10-14T02:50:03.691Z,95384.66
2022-10-14T02:52:31.735Z,95384.97
2022-10-14T02:54:59.640Z,95386.31
2022-10-14T02:57:27.633Z,95389.50
2022-10-14T02:59:58.187Z,95378.97
2022-10-14T03:02:26.391Z,95386.63
2022-10-14T03:04:56.087Z,95384.28
2022-10-14T03:07:24.389Z,95387.97
2022-10-14T03:09:53.927Z,95378.47
2022-10-14T03:12:25.101Z,95376.91
2022-10-14T03:14:55.048Z,95378.47
2022-10-14T03:17:25.183Z,95374.31
2022-10-14T03:19:55.494Z,95372.47
2022-10-14T03:22:26.743Z,95376.41
2022-10-14T03:24:56.104Z,95371.16
2022-10-14T03:27:41.320Z,95362.72
2022-10-14T03:30:13.476Z,95362.72
2022-10-14T03:32:54.893Z,95365.88
2022-10-14T03:35:47.193Z,95362.22
2022-10-14T03:38:18.976Z,95364.59
2022-10-14T03:40:48.725Z,95363.81
2022-10-14T03:43:17.848Z,95363.81
2022-10-14T03:45:52.689Z,95352.19
2022-10-14T03:48:23.265Z,95353.78
2022-10-14T03:50:52.571Z,95348.50
2022-10-14T03:53:21.361Z,95340.38
2022-10-14T03:55:50.989Z,95340.88
2022-10-14T03:58:19.082Z,95345.34
2022-10-14T04:00:56.917Z,95339.88
2022-10-14T04:03:38.357Z,95343.94
2022-10-14T04:06:07.927Z,95336.75
2022-10-14T04:08:37.403Z,95330.03
2022-10-14T04:11:19.164Z,95331.75
2022-10-14T04:13:49.210Z,95328.22
2022-10-14T04:16:17.306Z,95327.22
2022-10-14T04:18:59.857Z,95335.66
2022-10-14T04:21:29.285Z,95340.91
2022-10-14T04:23:58.933Z,95336.34
2022-10-14T04:26:39.752Z,95341.22
2022-10-14T04:29:14.082Z,95348.63
2022-10-14T04:31:54.509Z,95338.72
2022-10-14T04:34:23.672Z,95336.69
2022-10-14T04:36:55.025Z,95335.66
2022-10-14T04:39:39.963Z,95348.25
2022-10-14T04:42:08.059Z,95346.19
2022-10-14T04:44:36.550Z,95351.94
2022-10-14T04:47:05.848Z,95351.38
2022-10-14T04:49:34.020Z,95348.25
2022-10-14T04:52:12.899Z,95341.97
2022-10-14T04:54:47.555Z,95347.78
2022-10-14T04:57:15.556Z,95346.69
2022-10-14T04:59:48.281Z,95345.56
2022-10-14T05:02:34.699Z,95346.13
2022-10-14T05:05:03.543Z,95339.81
2022-10-14T05:07:37.430Z,95341.41
2022-10-14T05:10:21.338Z,95343.00
2022-10-14T05:12:50.112Z,95347.78
2022-10-14T05:15:19.672Z,95340.91
2022-10-14T05:17:59.240Z,95337.25
2022-10-14T05:20:41.464Z,95323.06
2022-10-14T05:23:10.856Z,95325.16
2022-10-14T05:25:38.880Z,95325.63
2022-10-14T05:28:06.979Z,95315.13
2022-10-14T05:30:36.106Z,95314.63
2022-10-14T05:33:08.219Z,95316.22
2022-10-14T05:35:58.139Z,95317.00
2022-10-14T05:38:29.009Z,95309.38
2022-10-14T05:40:58.838Z,95317.25
2022-10-14T05:43:32.066Z,95315.75
2022-10-14T05:46:02.299Z,95320.19
2022-10-14T05:48:34.521Z,95314.63
2022-10-14T05:51:03.518Z,95314.13
2022-10-14T05:53:35.629Z,95322.09
2022-10-14T05:56:09.879Z,95321.63
2022-10-14T05:58:40.193Z,95321.91
2022-10-14T06:01:11.600Z,95315.84
2022-10-14T06:03:42.405Z,95313.22
2022-10-14T06:06:13.350Z,95312.97
2022-10-14T06:08:43.088Z,95305.84
2022-10-14T06:11:11.003Z,95302.66
2022-10-14T06:13:39.741Z,95305.84
2022-10-14T06:16:11.124Z,95303.44
2022-10-14T06:18:39.532Z,95307.91
2022-10-14T06:21:08.504Z,95306.31
2022-10-14T06:23:36.719Z,95302.66
2022-10-14T06:26:09.829Z,95317.34
2022-10-14T06:28:38.473Z,95324.19
2022-10-14T06:31:06.874Z,95323.69
2022-10-14T06:33:35.260Z,95335.31
2022-10-14T06:36:04.042Z,95335.31
2022-10-14T06:38:32.010Z,95337.69
2022-10-14T06:41:00.192Z,95344.00
2022-10-14T06:43:30.131Z,95347.84
2022-10-14T06:45:59.550Z,95347.31
2022-10-14T06:48:27.628Z,95347.91
2022-10-14T06:50:55.611Z,95351.69
2022-10-14T06:53:23.568Z,95353.59
2022-10-14T06:55:57.803Z,95342.88
2022-10-14T06:58:25.760Z,95343.97
2022-10-14T07:00:55.255Z,95348.75
2022-10-14T07:03:23.555Z,95350.34
2022-10-14T07:05:51.861Z,95350.34
2022-10-14T07:08:19.856Z,95349.88
2022-10-14T07:10:48.212Z,95350.66
2022-10-14T07:13:16.279Z,95355.94
2022-10-14T07:15:44.244Z,95361.50
2022-10-14T07:18:14.103Z,95370.91
2022-10-14T07:20:42.019Z,95368.84
2022-10-14T07:23:09.942Z,95373.13
2022-10-14T07:25:38.002Z,95376.31
2022-10-14T07:28:06.377Z,95378.44
2022-10-14T07:30:34.440Z,95373.72
2022-10-14T07:33:02.774Z,95382.16
2022-10-14T07:35:32.347Z,95384.84
2022-10-14T07:38:00.980Z,95380.19
2022-10-14T07:40:29.549Z,95380.78
2022-10-14T07:42:57.758Z,95389.22
2022-10-14T07:45:25.735Z,95379.69
2022-10-14T07:47:53.834Z,95383.97
2022-10-14T07:50:21.790Z,95386.66
2022-10-14T07:52:51.291Z,95389.34
2022-10-14T07:55:19.284Z,95390.44
2022-10-14T07:57:47.200Z,95393.53
2022-10-14T08:00:15.565Z,95404.53
2022-10-14T08:02:43.575Z,95399.22
2022-10-14T08:08:01.442Z,95398.63
2022-10-14T08:10:29.575Z,95404.44
2022-10-14T08:12:58.054Z,95401.25
2022-10-14T08:15:28.537Z,95399.19
2022-10-14T08:17:56.565Z,95413.38
2022-10-14T08:20:24.507Z,95413.44
2022-10-14T08:22:52.436Z,95414.13
2022-10-14T08:25:22.457Z,95416.66
2022-10-14T08:27:51.250Z,95417.84
2022-10-14T08:30:19.522Z,95430.75
2022-10-14T08:32:47.612Z,95423.25
2022-10-14T08:35:16.081Z,95433.47
2022-10-14T08:37:44.124Z,95430.97
2022-10-14T08:40:18.218Z,95437.03
2022-10-14T08:42:55.364Z,95449.47
2022-10-14T08:45:30.393Z,95445.97
2022-10-14T08:48:00.473Z,95455.81
2022-10-14T08:50:34.469Z,95452.25
2022-10-14T08:53:08.423Z,95446.53
2022-10-14T08:55:39.884Z,95448.81
2022-10-14T08:58:15.804Z,95456.91
2022-10-14T09:00:46.901Z,95449.56
2022-10-14T09:03:22.120Z,95459.28
2022-10-14T09:05:58.743Z,95458.38
2022-10-14T09:08:31.864Z,95452.13
2022-10-14T09:11:00.281Z,95453.91
2022-10-14T09:13:36.103Z,95453.22
2022-10-14T09:16:09.324Z,95455.56
2022-10-14T09:18:41.848Z,95448.09
2022-10-14T09:21:40.424Z,95460.53
2022-10-14T09:24:16.676Z,95454.31
2022-10-14T09:26:46.371Z,95452.94
2022-10-14T09:29:25.030Z,95453.50
2022-10-14T09:31:53.308Z,95459.13
2022-10-14T09:34:26.732Z,95457.97
2022-10-14T09:36:54.857Z,95448.13
2022-10-14T09:39:22.905Z,95444.59
2022-10-14T09:41:54.275Z,95437.38
2022-10-14T09:44:25.913Z,95443.53
2022-10-14T09:46:57.330Z,95429.66
2022-10-14T09:49:35.913Z,95440.19
2022-10-14T09:52:04.167Z,95437.13
2022-10-14T09:54:33.503Z,95427.31
2022-10-14T09:57:05.118Z,95424.75
2022-10-14T09:59:35.401Z,95420.66
2022-10-14T10:02:05.548Z,95421.97
2022-10-14T10:04:37.449Z,95416.47
2022-10-14T10:07:07.704Z,95422.53
2022-10-14T10:09:35.875Z,95421.69
2022-10-14T10:12:24.489Z,95423.31
2022-10-14T10:15:03.693Z,95410.50
2022-10-14T10:17:32.753Z,95400.75
2022-10-14T10:20:20.524Z,95393.69
2022-10-14T10:22:49.050Z,95405.88
2022-10-14T10:25:27.250Z,95406.78
2022-10-14T10:27:59.481Z,95406.84
2022-10-14T10:30:32.359Z,95402.69
2022-10-14T10:33:17.067Z,95393.16
2022-10-14T10:36:05.471Z,95394.72
2022-10-14T10:38:40.410Z,95391.03
2022-10-14T10:41:23.634Z,95390.03
2022-10-14T10:44:18.487Z,95395.31
2022-10-14T10:47:05.822Z,95393.72
2022-10-14T10:52:42.504Z,95402.81
2022-10-14T10:55:19.135Z,95392.81
2022-10-14T10:58:02.621Z,95390.75
2022-10-14T11:00:42.643Z,95378.13
2022-10-14T11:03:30.877Z,95382.31
2022-10-14T11:06:07.484Z,95368.59
2022-10-14T11:09:06.010Z,95368.13
2022-10-14T11:12:00.025Z,95361.81
2022-10-14T11:14:48.559Z,95365.03
2022-10-14T11:17:26.883Z,95364.53
2022-10-14T11:20:05.464Z,95363.97
2022-10-14T11:22:55.963Z,95352.84
2022-10-14T11:25:34.688Z,95347.56
2022-10-14T11:28:11.266Z,95349.94
2022-10-14T11:30:47.752Z,95351.78
2022-10-14T11:33:29.471Z,95351.00
2022-10-14T11:36:08.164Z,95350.72
2022-10-14T11:38:55.452Z,95342.78
2022-10-14T11:41:35.487Z,95340.16
2022-10-14T11:44:11.224Z,95335.94
2022-10-14T11:46:42.990Z,95342.28
2022-10-14T11:49:20.150Z,95337.44
2022-10-14T11:51:54.090Z,95335.59
2022-10-14T11:54:29.523Z,95335.88
2022-10-14T11:57:02.561Z,95339.03
2022-10-14T11:59:40.087Z,95332.19
2022-10-14T12:02:34.764Z,95335.88
2022-10-14T12:05:11.649Z,95341.16
2022-10-14T12:07:46.199Z,95337.19
2022-10-14T12:10:23.407Z,95341.16
2022-10-14T12:12:52.890Z,95335.06
2022-10-14T12:15:24.951Z,95338.25
2022-10-14T12:17:57.040Z,95336.13
2022-10-14T12:20:33.538Z,95344.31
2022-10-14T12:23:04.381Z,95339.56
2022-10-14T12:25:40.067Z,95339.56
2022-10-14T12:28:09.772Z,95339.06
2022-10-14T12:30:39.656Z,95338.06
2022-10-14T12:33:09.578Z,95335.94
2022-10-14T12:35:53.328Z,95333.31
2022-10-14T12:38:23.151Z,95327.31
2022-10-14T12:40:51.120Z,95324.94
2022-10-14T12:43:25.667Z,95328.09
2022-10-14T12:46:14.449Z,95326.06
2022-10-14T12:48:50.352Z,95330.00
2022-10-14T12:51:21.016Z,95325.50
2022-10-14T12:53:55.624Z,95336.06
2022-10-14T12:56:36.322Z,95328.72
2022-10-14T12:59:07.568Z,95325.50
2022-10-14T13:01:38.893Z,95323.44
2022-10-14T13:04:19.916Z,95315.78
2022-10-14T13:07:46.590Z,95318.63
2022-10-14T13:10:47.324Z,95311.78
2022-10-14T13:13:52.519Z,95310.22
2022-10-14T13:17:06.469Z,95314.94
2022-10-14T13:19:45.437Z,95309.63
2022-10-14T13:22:45.943Z,95320.19
2022-10-14T13:25:17.708Z,95314.91
2022-10-14T13:27:56.585Z,95308.56
2022-10-14T13:30:33.982Z,95312.25
2022-10-14T13:33:11.979Z,95316.47
2022-10-14T13:35:53.545Z,95312.00
2022-10-14T13:38:24.841Z,95312.25
2022-10-14T13:40:55.356Z,95311.72
2022-10-14T13:43:29.165Z,95311.19
2022-10-14T13:46:07.980Z,95324.94
2022-10-14T13:48:40.231Z,95323.34
2022-10-14T13:51:36.671Z,95315.16
2022-10-14T13:54:17.852Z,95313.59
2022-10-14T13:57:12.617Z,95318.06
2022-10-14T14:02:42.875Z,95318.59
2022-10-14T14:05:17.008Z,95316.47
2022-10-14T14:10:39.177Z,95318.00
2022-10-14T14:13:14.389Z,95316.94
2022-10-14T14:15:43.850Z,95320.63
2022-10-14T14:18:33.942Z,95319.06
2022-10-14T14:21:13.989Z,95314.31
2022-10-14T14:23:51.063Z,95312.19
2022-10-14T14:26:20.160Z,95313.25
2022-10-14T14:28:49.455Z,95308.00
2022-10-14T14:31:23.052Z,95304.81
2022-10-14T14:33:51.148Z,95303.25
2022-10-14T14:36:27.846Z,95303.25
2022-10-14T14:39:03.354Z,95300.63
2022-10-14T14:41:33.236Z,95299.53
2022-10-14T14:44:25.689Z,95305.88
2022-10-14T14:46:59.311Z,95300.59
2022-10-14T14:49:30.587Z,95302.41
2022-10-14T14:52:00.599Z,95307.44
2022-10-14T14:54:29.899Z,95306.91
2022-10-14T14:57:05.013Z,95306.41
2022-10-14T14:59:36.764Z,95315.38
2022-10-14T15:02:14.500Z,95319.56
2022-10-14T15:04:43.819Z,95314.25
2022-10-14T15:07:21.067Z,95317.94
2022-10-14T15:09:52.693Z,95314.75
2022-10-14T15:12:24.198Z,95307.91
2022-10-14T15:14:53.869Z,95297.88
2022-10-14T15:17:32.174Z,95300.50
2022-10-14T15:20:21.781Z,95297.31
2022-10-14T15:22:51.798Z,95296.75
2022-10-14T15:25:30.669Z,95292.50
2022-10-14T15:27:59.871Z,95292.50
2022-10-14T15:30:34.697Z,95289.84
2022-10-14T15:33:13.863Z,95290.91
2022-10-14T15:35:42.291Z,95305.88
2022-10-14T15:38:16.147Z,95304.00
2022-10-14T15:40:45.203Z,95311.38
2022-10-14T15:43:17.615Z,95295.56
2022-10-14T15:46:10.660Z,95298.75
2022-10-14T15:48:40.498Z,95291.88
2022-10-14T15:51:08.470Z,95300.31
2022-10-14T15:53:36.567Z,95306.63
2022-10-14T15:56:04.502Z,95296.59
2022-10-14T15:58:33.775Z,95302.94
2022-10-14T16:01:02.305Z,95298.72
2022-10-14T16:03:34.571Z,95307.41
2022-10-14T16:06:05.635Z,95302.94
2022-10-14T16:08:34.117Z,95288.72
2022-10-14T16:11:04.338Z,95291.09
2022-10-14T16:13:32.281Z,95291.88
2022-10-14T16:16:02.892Z,95288.72
2022-10-14T16:18:30.795Z,95290.81
2022-10-14T16:20:58.826Z,95286.59
2022-10-14T16:23:32.511Z,95280.28
2022-10-14T16:26:01.985Z,95290.22
2022-10-14T16:28:30.003Z,95275.41
2022-10-14T16:30:59.971Z,95276.72
2022-10-14T16:33:28.031Z,95282.22
2022-10-14T16:35:57.596Z,95282.22
2022-10-14T16:38:25.641Z,95278.50
2022-10-14T16:40:59.060Z,95272.19
2022-10-14T16:43:27.658Z,95268.72
2022-10-14T16:45:59.100Z,95257.38
2022-10-14T16:48:27.984Z,95256.06
2022-10-14T16:50:56.585Z,95276.34
2022-10-14T16:53:45.186Z,95282.94
2022-10-14T16:56:34.349Z,95272.91
2022-10-14T16:59:02.933Z,95262.38
2022-10-14T17:01:30.998Z,95259.97
2022-10-14T17:03:59.446Z,95251.03
2022-10-14T17:06:27.983Z,95252.63
2022-10-14T17:08:55.903Z,95257.84
2022-10-14T17:11:27.378Z,95264.16
2022-10-14T17:13:57.492Z,95277.88
2022-10-14T17:16:27.100Z,95272.06
2022-10-14T17:18:55.128Z,95282.59
2022-10-14T17:21:23.076Z,95279.91
2022-10-14T17:23:51.284Z,95288.38
2022-10-14T17:26:20.762Z,95290.50
2022-10-14T17:28:50.654Z,95296.81
2022-10-14T17:31:22.630Z,95298.06
2022-10-14T17:33:51.048Z,95306.22
2022-10-14T17:36:21.084Z,95307.28
2022-10-14T17:38:50.751Z,95314.72
2022-10-14T17:41:19.582Z,95306.22
2022-10-14T17:43:49.549Z,95313.09
2022-10-14T17:46:21.333Z,95311.50
2022-10-14T17:48:51.782Z,95315.97
2022-10-14T17:51:22.919Z,95316.28
2022-10-14T17:53:53.943Z,95326.81
2022-10-14T17:56:22.260Z,95334.66
2022-10-14T17:58:53.293Z,95331.53
2022-10-14T18:01:36.811Z,95328.41
2022-10-14T18:04:11.098Z,95317.88
2022-10-14T18:06:39.134Z,95313.41
2022-10-14T18:09:09.648Z,95314.75
2022-10-14T18:12:06.949Z,95332.88
2022-10-14T18:14:29.216Z,95341.53
2022-10-14T18:16:59.415Z,95338.41
2022-10-14T18:19:27.845Z,95341.59
2022-10-14T18:21:55.822Z,95325.25
2022-10-14T18:24:23.850Z,95329.22
2022-10-14T18:26:52.165Z,95307.34
2022-10-14T18:29:20.168Z,95305.19
2022-10-14T18:34:25.496Z,95290.41
2022-10-14T18:36:53.456Z,95286.19
2022-10-14T18:39:21.587Z,95282.47
2022-10-14T18:41:49.558Z,95280.34
2022-10-14T18:44:17.885Z,95286.13
2022-10-14T18:46:47.701Z,95279.75
2022-10-14T18:49:15.628Z,95279.25
2022-10-14T18:51:45.065Z,95269.72
2022-10-14T18:54:15.906Z,95265.97
2022-10-14T18:56:44.773Z,95269.63
2022-10-14T18:59:14.677Z,95267.00
2022-10-14T19:01:43.074Z,95277.00
2022-10-14T19:04:13.460Z,95277.00
2022-10-14T19:06:42.726Z,95276.50
2022-10-14T19:09:13.797Z,95280.16
2022-10-14T19:11:42.739Z,95278.06
2022-10-14T19:14:10.952Z,95273.91
2022-10-14T19:16:39.946Z,95278.66
2022-10-14T19:19:11.688Z,95282.94
2022-10-14T19:21:40.072Z,95272.41
2022-10-14T19:24:08.855Z,95276.06
2022-10-14T19:26:40.530Z,95273.44
2022-10-14T19:29:11.754Z,95269.72
2022-10-14T19:31:41.007Z,95270.47
2022-10-14T19:34:13.926Z,95268.63
2022-10-14T19:36:42.584Z,95267.03
2022-10-14T19:39:14.535Z,95269.13
2022-10-14T19:41:46.440Z,95279.66
2022-10-14T19:44:15.538Z,95285.94
2022-10-14T19:46:43.752Z,95285.16
2022-10-14T19:49:13.725Z,95281.22
2022-10-14T19:51:41.852Z,95293.28
2022-10-14T19:54:12.010Z,95282.75
2022-10-14T19:56:39.986Z,95292.50
2022-10-14T19:59:10.467Z,95300.63
2022-10-14T20:01:38.540Z,95297.44
2022-10-14T20:04:07.093Z,95298.56
2022-10-14T20:06:37.814Z,95300.16
2022-10-14T20:09:06.117Z,95294.34
2022-10-14T20:11:34.329Z,95291.38
2022-10-14T20:14:02.335Z,95282.94
2022-10-14T20:16:31.757Z,95275.31
2022-10-14T20:18:59.710Z,95280.78
2022-10-14T20:21:30.063Z,95287.34
2022-10-14T20:23:59.371Z,95287.34
2022-10-14T20:26:27.559Z,95278.81
2022-10-14T20:28:55.979Z,95278.25
2022-10-14T20:31:25.554Z,95275.41
2022-10-14T20:33:56.251Z,95281.69
2022-10-14T20:36:24.711Z,95285.09
2022-10-14T20:38:52.966Z,95286.25
2022-10-14T20:41:23.039Z,95282.56
2022-10-14T20:43:51.417Z,95274.59
2022-10-14T20:46:20.154Z,95273.09
2022-10-14T20:48:48.050Z,95268.84
2022-10-14T20:51:19.642Z,95272.06
2022-10-14T20:53:47.547Z,95267.88
2022-10-14T20:56:15.957Z,95264.69
2022-10-14T20:58:44.056Z,95259.44
2022-10-14T21:01:13.777Z,95266.28
2022-10-14T21:03:43.232Z,95266.00
2022-10-14T21:06:15.159Z,95253.53
2022-10-14T21:08:45.073Z,95262.97
2022-10-14T21:11:15.531Z,95260.88
2022-10-14T21:13:45.947Z,95259.63
2022-10-14T21:16:15.388Z,95251.47
2022-10-14T21:18:46.536Z,95248.22
2022-10-14T21:21:16.759Z,95248.78
2022-10-14T21:23:46.571Z,95253.44
2022-10-14T21:26:14.837Z,95261.59
2022-10-14T21:28:43.180Z,95250.03
2022-10-14T21:31:17.399Z,95261.88
2022-10-14T21:33:47.549Z,95261.38
2022-10-14T21:36:17.277Z,95250.88
2022-10-14T21:38:46.624Z,95256.13
2022-10-14T21:41:14.631Z,95255.63
2022-10-14T21:43:42.937Z,95260.28
2022-10-14T21:46:13.185Z,95259.78
2022-10-14T21:48:42.000Z,95256.16
2022-10-14T21:51:12.279Z,95260.41
2022-10-14T21:53:41.704Z,95255.16
2022-10-14T21:56:12.884Z,95245.09
2022-10-14T21:58:41.453Z,95243.50
2022-10-14T22:01:12.851Z,95245.84
2022-10-14T22:03:41.639Z,95254.28
2022-10-14T22:06:12.003Z,95252.81
2022-10-14T22:08:42.180Z,95250.81
2022-10-14T22:11:18.451Z,95255.50
2022-10-14T22:13:46.881Z,95247.25
2022-10-14T22:16:16.946Z,95250.06
2022-10-14T22:18:46.875Z,95248.03
2022-10-14T22:21:17.203Z,95245.97
2022-10-14T22:23:45.887Z,95244.50
2022-10-14T22:26:15.739Z,95245.88
2022-10-14T22:28:45.427Z,95241.91
2022-10-14T22:31:16.245Z,95241.41
2022-10-14T22:33:44.302Z,95240.16
2022-10-14T22:36:14.391Z,95245.59
2022-10-14T22:38:45.372Z,95254.81
2022-10-14T22:41:15.312Z,95248.22
2022-10-14T22:43:48.461Z,95240.72
2022-10-14T22:46:19.633Z,95255.53
2022-10-14T22:48:48.408Z,95241.91
2022-10-14T22:51:18.476Z,95236.94
2022-10-14T22:53:47.537Z,95238.38
2022-10-14T22:56:18.099Z,95235.75
2022-10-14T22:58:47.409Z,95238.09
2022-10-14T23:01:17.537Z,95234.41
2022-10-14T23:03:45.524Z,95239.97
2022-10-14T23:06:14.703Z,95249.97
2022-10-14T23:08:43.228Z,95240.94
2022-10-14T23:11:13.811Z,95241.28
2022-10-14T23:13:42.084Z,95234.91
2022-10-14T23:16:14.315Z,95234.72
2022-10-14T23:21:17.454Z,95231.53
2022-10-14T23:23:46.694Z,95226.28
2022-10-14T23:26:16.143Z,95220.47
2022-10-14T23:28:44.239Z,95230.44
2022-10-14T23:31:15.317Z,95234.16
2022-10-14T23:33:43.421Z,95225.16
2022-10-14T23:36:13.407Z,95226.13
2022-10-14T23:38:41.675Z,95235.69
2022-10-14T23:41:11.138Z,95233.13
2022-10-14T23:43:39.359Z,95233.13
2022-10-14T23:46:07.943Z,95234.09
2022-10-14T23:48:38.003Z,95229.31
2022-10-14T23:51:06.199Z,95240.47
2022-10-14T23:53:35.004Z,95228.66
2022-10-14T23:56:03.143Z,95235.00
2022-10-14T23:58:31.075Z,95238.97
